Time;durP1;ratioP1;P1;durP2;ratioP2;P2;SDS_P1;SDS_P2;PMS_P1;PMS_P2;Temp;Humidity;BMP_temperature;BMP_pressure;BME280_temperature;BME280_humidity;BME280_pressure;Samples;Min_cycle;Max_cycle;Signal;HPM_P1;HPM_P2
2023/09/08 00:01:49;;;;;;;26.48;19.38;;;;;;;16.13;100.00;101790.38;5031316;28;20030;-78
2023/09/08 00:04:14;;;;;;;22.67;18.75;;;;;;;16.09;100.00;101791.69;5029678;28;20064;-78
2023/09/08 00:06:40;;;;;;;23.08;17.27;;;;;;;16.05;100.00;101790.31;5031328;28;20058;-78
2023/09/08 00:09:06;;;;;;;25.20;18.40;;;;;;;16.02;100.00;101794.13;5031615;28;20458;-78
2023/09/08 00:11:32;;;;;;;21.52;18.55;;;;;;;15.99;100.00;101788.25;5031107;28;20481;-78
2023/09/08 00:13:57;;;;;;;22.88;17.83;;;;;;;15.93;100.00;101788.81;5031346;28;20152;-78
2023/09/08 00:16:23;;;;;;;19.45;15.98;;;;;;;15.90;100.00;101791.81;5013274;28;20029;-78
2023/09/08 00:18:49;;;;;;;22.15;17.30;;;;;;;15.87;100.00;101787.63;5030119;28;20117;-78
2023/09/08 00:21:14;;;;;;;20.25;15.98;;;;;;;15.83;100.00;101789.72;5031142;28;20041;-78
2023/09/08 00:23:39;;;;;;;25.58;17.13;;;;;;;15.82;100.00;101789.88;5029892;28;20040;-78
2023/09/08 00:26:05;;;;;;;24.27;16.20;;;;;;;15.78;100.00;101788.50;5031297;28;20033;-78
2023/09/08 00:28:30;;;;;;;21.17;16.27;;;;;;;15.78;100.00;101788.50;5031122;28;20087;-78
2023/09/08 00:30:55;;;;;;;20.92;17.83;;;;;;;15.77;100.00;101794.84;5031349;28;20040;-79
2023/09/08 00:33:22;;;;;;;22.73;17.58;;;;;;;15.73;100.00;101788.91;5030751;28;20033;-78
2023/09/08 00:35:51;;;;;;;18.38;15.80;;;;;;;15.71;100.00;101793.59;5029813;28;20041;-78
2023/09/08 00:38:17;;;;;;;21.60;16.40;;;;;;;15.68;100.00;101789.38;5030942;28;20037;-78
2023/09/08 00:40:42;;;;;;;22.90;17.13;;;;;;;15.68;100.00;101792.03;5031291;28;20099;-78
2023/09/08 00:43:07;;;;;;;24.35;17.63;;;;;;;15.68;100.00;101785.84;5030652;28;20098;-78
2023/09/08 00:45:40;;;;;;;21.35;16.88;;;;;;;15.65;100.00;101795.03;5029754;28;20037;-78
2023/09/08 00:48:06;;;;;;;18.23;15.88;;;;;;;15.63;100.00;101785.44;5030873;28;20041;-78
2023/09/08 00:50:31;;;;;;;25.00;18.98;;;;;;;15.63;100.00;101793.47;5030611;28;20045;-77
2023/09/08 00:52:57;;;;;;;21.45;17.00;;;;;;;15.62;100.00;101786.44;5030858;28;20466;-78
2023/09/08 00:55:23;;;;;;;20.17;17.52;;;;;;;15.60;100.00;101785.72;5030806;28;20422;-78
2023/09/08 00:57:48;;;;;;;20.98;17.88;;;;;;;15.57;100.00;101781.53;5031061;28;20351;-78
2023/09/08 01:00:14;;;;;;;22.17;18.48;;;;;;;15.57;100.00;101799.44;5030790;28;20532;-78
2023/09/08 01:02:39;;;;;;;19.80;16.20;;;;;;;15.55;100.00;101793.41;5029529;28;20029;-78
2023/09/08 01:05:05;;;;;;;28.35;20.75;;;;;;;15.52;100.00;101794.53;5030483;28;20033;-78
2023/09/08 01:07:32;;;;;;;26.88;19.13;;;;;;;15.52;100.00;101778.44;5031306;28;20057;-78
2023/09/08 01:10:03;;;;;;;25.60;20.23;;;;;;;15.50;100.00;101789.31;5030851;28;20080;-79
2023/09/08 01:12:29;;;;;;;26.45;21.15;;;;;;;15.52;100.00;101798.06;5029347;28;20027;-78
2023/09/08 01:14:54;;;;;;;22.98;19.05;;;;;;;15.51;100.00;101791.00;5030598;28;20029;-78
2023/09/08 01:17:19;;;;;;;24.08;19.58;;;;;;;15.51;100.00;101795.53;5028949;28;20029;-78
2023/09/08 01:19:47;;;;;;;22.77;17.70;;;;;;;15.46;100.00;101782.56;5030578;28;20037;-78
2023/09/08 01:22:22;;;;;;;28.00;20.20;;;;;;;15.46;100.00;101787.91;5030766;28;20346;-78
2023/09/08 01:25:17;;;;;;;22.58;18.98;;;;;;;15.41;100.00;101792.06;5030273;28;20429;-77
2023/09/08 01:27:49;;;;;;;21.15;17.33;;;;;;;15.39;100.00;101794.03;5030206;28;20544;-78
2023/09/08 01:30:16;;;;;;;21.35;17.38;;;;;;;15.35;100.00;101785.44;5030420;28;20029;-78
2023/09/08 01:32:43;;;;;;;22.77;17.85;;;;;;;15.31;100.00;101787.56;5030609;28;20056;-78
2023/09/08 01:35:09;;;;;;;22.70;18.27;;;;;;;15.29;100.00;101784.19;5030177;28;20125;-78
2023/09/08 01:37:34;;;;;;;26.58;20.52;;;;;;;15.27;100.00;101779.94;5030261;28;20037;-78
2023/09/08 01:40:00;;;;;;;26.42;20.33;;;;;;;15.24;100.00;101775.75;5030069;28;20136;-86
2023/09/08 01:42:26;;;;;;;33.35;20.52;;;;;;;15.24;100.00;101778.44;5029971;28;20037;-78
2023/09/08 01:44:51;;;;;;;24.85;20.60;;;;;;;15.23;100.00;101781.25;5030119;28;20458;-78
2023/09/08 01:47:16;;;;;;;28.88;22.13;;;;;;;15.24;100.00;101777.56;5030314;28;20073;-78
2023/09/08 01:49:42;;;;;;;28.85;22.45;;;;;;;15.24;100.00;101778.44;5030292;28;20354;-78
2023/09/08 01:52:07;;;;;;;27.65;21.83;;;;;;;15.21;100.00;101773.38;5029988;28;20172;-78
2023/09/08 01:54:32;;;;;;;27.30;20.92;;;;;;;15.18;100.00;101781.69;5030217;28;20044;-78
2023/09/08 01:56:58;;;;;;;25.20;20.05;;;;;;;15.15;100.00;101773.94;5030156;28;20037;-78
2023/09/08 01:59:23;;;;;;;26.30;20.75;;;;;;;15.13;100.00;101783.97;5028080;28;20088;-78
2023/09/08 02:01:48;;;;;;;31.90;22.23;;;;;;;15.09;100.00;101778.06;5029593;28;20040;-77
2023/09/08 02:04:14;;;;;;;27.60;19.90;;;;;;;15.09;100.00;101772.72;5029647;28;20124;-78
2023/09/08 02:06:39;;;;;;;25.15;20.23;;;;;;;15.06;100.00;101774.81;5029697;28;20076;-78
2023/09/08 02:09:04;;;;;;;22.00;19.17;;;;;;;15.05;100.00;101778.47;5029803;28;20385;-81
2023/09/08 02:11:30;;;;;;;24.73;19.50;;;;;;;15.04;100.00;101780.31;5029687;28;20025;-78
2023/09/08 02:13:55;;;;;;;22.23;17.92;;;;;;;15.02;100.00;101776.09;5029831;28;20504;-78
2023/09/08 02:16:20;;;;;;;27.83;19.45;;;;;;;14.99;100.00;101774.56;5030885;28;20034;-78
2023/09/08 02:18:46;;;;;;;26.02;20.00;;;;;;;14.98;100.00;101772.88;5033042;28;20034;-78
2023/09/08 02:21:11;;;;;;;30.75;22.35;;;;;;;14.98;100.00;101778.22;5031687;28;20086;-77
2023/09/08 02:23:37;;;;;;;26.40;20.83;;;;;;;14.96;100.00;101774.84;5033170;28;20465;-78
2023/09/08 02:26:03;;;;;;;27.98;19.83;;;;;;;14.94;100.00;101771.47;5032876;28;20034;-78
2023/09/08 02:28:29;;;;;;;28.27;21.65;;;;;;;14.93;100.00;101769.78;5031581;28;20044;-77
2023/09/08 02:30:54;;;;;;;24.48;19.00;;;;;;;14.89;100.00;101771.91;5033402;28;20025;-77
2023/09/08 02:33:20;;;;;;;31.23;22.23;;;;;;;14.90;100.00;101772.72;5033127;28;20497;-78
2023/09/08 02:35:45;;;;;;;29.10;22.85;;;;;;;14.90;100.00;101768.25;5034603;28;20075;-79
2023/09/08 02:38:11;;;;;;;28.88;21.20;;;;;;;14.88;100.00;101766.69;5035573;28;20033;-77
2023/09/08 02:40:36;;;;;;;26.25;18.95;;;;;;;14.84;100.00;101766.13;5035339;28;20061;-76
2023/09/08 02:43:02;;;;;;;27.75;20.42;;;;;;;14.80;100.00;101770.91;5035474;28;20037;-76
2023/09/08 02:45:28;;;;;;;25.75;18.73;;;;;;;14.78;100.00;101766.72;5035099;28;20091;-76
2023/09/08 02:47:53;;;;;;;25.58;19.00;;;;;;;14.73;100.00;101764.44;5035463;28;20382;-78
2023/09/08 02:50:19;;;;;;;26.58;19.83;;;;;;;14.72;100.00;101773.50;5035884;28;20038;-77
2023/09/08 02:52:45;;;;;;;29.15;20.38;;;;;;;14.71;100.00;101766.44;5035296;28;20116;-79
2023/09/08 02:55:11;;;;;;;24.77;18.98;;;;;;;14.68;100.00;101764.03;5035001;28;20065;-77
2023/09/08 02:57:37;;;;;;;23.60;19.67;;;;;;;14.67;100.00;101773.06;5035257;28;20561;-77
2023/09/08 03:00:04;;;;;;;24.77;20.73;;;;;;;14.67;100.00;101761.50;5035066;28;20049;-77
2023/09/08 03:02:30;;;;;;;30.08;20.58;;;;;;;14.64;100.00;101768.00;5034984;28;20109;-77
2023/09/08 03:04:55;;;;;;;26.13;19.38;;;;;;;14.63;100.00;101771.69;5035105;28;20501;-77
2023/09/08 03:07:21;;;;;;;27.42;21.30;;;;;;;14.61;100.00;101763.78;5034949;28;20402;-77
2023/09/08 03:09:46;;;;;;;31.25;21.85;;;;;;;14.63;100.00;101769.84;5035060;28;20031;-77
2023/09/08 03:12:12;;;;;;;23.45;19.60;;;;;;;14.59;100.00;101763.03;5035291;28;20386;-77
2023/09/08 03:14:37;;;;;;;24.95;19.33;;;;;;;14.57;100.00;101762.34;5034783;28;20038;-77
2023/09/08 03:17:03;;;;;;;24.58;20.17;;;;;;;14.55;100.00;101760.78;5034835;28;20044;-77
2023/09/08 03:19:28;;;;;;;28.35;20.10;;;;;;;14.54;100.00;101761.78;5034684;28;20528;-77
2023/09/08 03:21:53;;;;;;;25.92;19.92;;;;;;;14.52;100.00;101758.41;5033558;28;20470;-77
2023/09/08 03:24:19;;;;;;;22.27;17.80;;;;;;;14.50;100.00;101758.53;5034872;28;20033;-79
2023/09/08 03:26:44;;;;;;;23.40;18.80;;;;;;;14.49;100.00;101759.53;5033152;28;20033;-76
2023/09/08 03:29:09;;;;;;;26.90;19.98;;;;;;;14.48;100.00;101760.53;5032469;28;20116;-76
2023/09/08 03:31:35;;;;;;;26.73;20.35;;;;;;;14.45;100.00;101750.06;5034243;28;20378;-76
2023/09/08 03:34:00;;;;;;;30.17;20.60;;;;;;;14.45;100.00;101745.59;5034079;28;20426;-77
2023/09/08 03:36:26;;;;;;;27.70;20.67;;;;;;;14.43;100.00;101752.91;5034627;28;20036;-77
2023/09/08 03:38:51;;;;;;;30.40;22.15;;;;;;;14.42;100.00;101747.69;5034406;28;20060;-77
2023/09/08 03:41:17;;;;;;;37.75;25.80;;;;;;;14.42;100.00;101748.53;5034384;28;20029;-77
2023/09/08 03:43:42;;;;;;;32.92;22.98;;;;;;;14.42;100.00;101747.69;5033971;28;20477;-77
2023/09/08 03:46:07;;;;;;;30.20;21.58;;;;;;;14.39;100.00;101750.66;5033888;28;20117;-77
2023/09/08 03:48:33;;;;;;;29.23;21.55;;;;;;;14.36;100.00;101748.25;5034178;28;20029;-77
2023/09/08 03:50:58;;;;;;;31.00;22.70;;;;;;;14.35;100.00;101746.59;5034186;28;20045;-77
2023/09/08 03:53:24;;;;;;;26.80;20.13;;;;;;;14.35;100.00;101743.91;5034088;28;20083;-78
2023/09/08 03:55:49;;;;;;;29.20;21.05;;;;;;;14.34;100.00;101743.03;5034271;28;20033;-77
2023/09/08 03:58:15;;;;;;;24.35;18.35;;;;;;;14.34;100.00;101736.84;5033975;28;20130;-77
2023/09/08 04:00:41;;;;;;;29.48;21.52;;;;;;;14.35;100.00;101739.38;5034041;28;20410;-77
2023/09/08 04:03:06;;;;;;;28.65;21.10;;;;;;;14.36;100.00;101742.91;5034067;28;20032;-77
2023/09/08 04:05:32;;;;;;;28.27;21.75;;;;;;;14.34;100.00;101740.38;5034039;28;20116;-77
2023/09/08 04:07:57;;;;;;;27.60;20.08;;;;;;;14.32;100.00;101746.88;5035124;28;20079;-77
2023/09/08 04:10:22;;;;;;;28.02;20.13;;;;;;;14.33;100.00;101745.88;5033813;28;20444;-77
2023/09/08 04:12:48;;;;;;;30.65;21.45;;;;;;;14.34;100.00;101747.56;5033781;28;20068;-77
2023/09/08 04:15:13;;;;;;;30.38;21.75;;;;;;;14.34;100.00;101752.91;5033697;28;20025;-77
2023/09/08 04:17:38;;;;;;;28.95;21.27;;;;;;;14.34;100.00;101748.41;5033710;28;20534;-77
2023/09/08 04:20:05;;;;;;;25.80;19.50;;;;;;;14.32;100.00;101750.38;5033905;28;20033;-77
2023/09/08 04:22:31;;;;;;;28.88;22.15;;;;;;;14.32;100.00;101746.88;5033342;28;20064;-77
2023/09/08 04:24:57;;;;;;;31.20;20.88;;;;;;;14.34;100.00;101751.06;5034254;28;20069;-77
2023/09/08 04:27:23;;;;;;;30.17;22.23;;;;;;;14.33;100.00;101753.91;5034131;28;20064;-78
2023/09/08 04:29:48;;;;;;;26.98;19.95;;;;;;;14.28;100.00;101747.13;5033218;28;20033;-78
2023/09/08 04:32:14;;;;;;;29.05;20.95;;;;;;;14.26;100.00;101745.59;5033921;28;20108;-77
2023/09/08 04:34:41;;;;;;;27.60;20.17;;;;;;;14.23;100.00;101744.03;5033693;28;20037;-77
2023/09/08 04:37:06;;;;;;;33.15;23.88;;;;;;;14.23;100.00;101746.72;5033353;28;20029;-77
2023/09/08 04:39:33;;;;;;;36.70;24.67;;;;;;;14.25;100.00;101751.94;5032984;28;20040;-77
2023/09/08 04:41:58;;;;;;;35.70;26.05;;;;;;;14.24;100.00;101745.75;5033453;28;20039;-77
2023/09/08 04:44:23;;;;;;;33.10;23.80;;;;;;;14.24;100.00;101756.44;5033350;28;20061;-78
2023/09/08 04:46:49;;;;;;;46.60;27.55;;;;;;;14.28;100.00;101759.69;5033653;28;20037;-77
2023/09/08 04:49:14;;;;;;;38.35;27.25;;;;;;;14.30;100.00;101763.03;5033172;28;20033;-78
2023/09/08 04:51:40;;;;;;;35.17;24.52;;;;;;;14.29;100.00;101761.38;5033089;28;20456;-79
2023/09/08 04:54:05;;;;;;;33.05;22.58;;;;;;;14.27;100.00;101763.31;5033124;28;20441;-79
2023/09/08 04:56:30;;;;;;;34.78;23.50;;;;;;;14.23;100.00;101756.59;5031757;28;20115;-77
2023/09/08 04:58:57;;;;;;;30.95;22.35;;;;;;;14.19;100.00;101755.16;5032764;28;20116;-79
2023/09/08 05:01:23;;;;;;;32.30;22.73;;;;;;;14.17;100.00;101757.16;5033394;28;20029;-77
2023/09/08 05:03:48;;;;;;;32.75;22.67;;;;;;;14.17;100.00;101759.84;5033134;28;20125;-77
2023/09/08 05:06:14;;;;;;;36.17;25.77;;;;;;;14.19;100.00;101757.84;5032231;28;20047;-76
2023/09/08 05:08:39;;;;;;;35.17;23.10;;;;;;;14.18;100.00;101751.66;5032755;28;20091;-79
2023/09/08 05:11:04;;;;;;;36.15;24.38;;;;;;;14.19;100.00;101768.56;5032031;28;20084;-79
2023/09/08 05:13:30;;;;;;;41.42;26.80;;;;;;;14.20;100.00;101757.72;5033039;28;20038;-78
2023/09/08 05:16:00;;;;;;;36.38;24.42;;;;;;;14.22;100.00;101758.41;5032946;28;20041;-78
2023/09/08 05:18:28;;;;;;;35.25;24.98;;;;;;;14.24;100.00;101763.59;5031710;28;20044;-78
2023/09/08 05:20:54;;;;;;;42.60;25.00;;;;;;;14.26;100.00;101762.50;5032934;28;20060;-78
2023/09/08 05:23:19;;;;;;;37.90;25.30;;;;;;;14.29;100.00;101761.38;5032938;28;20121;-78
2023/09/08 05:25:45;;;;;;;33.75;22.77;;;;;;;14.29;100.00;101761.38;5032845;28;20382;-78
2023/09/08 05:28:10;;;;;;;40.30;25.67;;;;;;;14.30;100.00;101757.69;5033203;28;20042;-78
2023/09/08 05:30:36;;;;;;;40.15;27.25;;;;;;;14.30;100.00;101763.03;5032433;28;20030;-78
2023/09/08 05:33:01;;;;;;;38.97;26.70;;;;;;;14.29;100.00;101764.88;5032667;28;20072;-78
2023/09/08 05:35:27;;;;;;;40.55;27.75;;;;;;;14.32;100.00;101763.75;5031875;28;20450;-78
2023/09/08 05:37:52;;;;;;;45.03;27.67;;;;;;;14.33;100.00;101768.16;5032312;28;20397;-78
2023/09/08 05:40:18;;;;;;;42.40;26.65;;;;;;;14.36;100.00;101772.34;5031240;28;20029;-79
2023/09/08 05:42:44;;;;;;;36.78;23.55;;;;;;;14.38;100.00;101776.59;5032739;28;20520;-79
2023/09/08 05:45:09;;;;;;;35.80;23.73;;;;;;;14.40;100.00;101768.41;5032860;28;20045;-79
2023/09/08 05:47:36;;;;;;;37.90;25.00;;;;;;;14.42;100.00;101772.66;5033254;28;20041;-79
2023/09/08 05:50:01;;;;;;;34.70;25.98;;;;;;;14.46;100.00;101779.41;5032856;28;20528;-77
2023/09/08 05:52:28;;;;;;;36.15;24.88;;;;;;;14.50;100.00;101774.59;5035679;28;20033;-77
2023/09/08 05:54:53;;;;;;;37.80;25.38;;;;;;;14.54;100.00;101783.19;5037043;28;20040;-79
2023/09/08 05:57:19;;;;;;;44.35;31.00;;;;;;;14.58;100.00;101781.94;5036096;28;20034;-80
2023/09/08 05:59:44;;;;;;;43.72;28.55;;;;;;;14.62;100.00;101783.38;5036580;28;20040;-77
2023/09/08 06:02:10;;;;;;;42.88;28.45;;;;;;;14.69;100.00;101792.53;5035687;28;20065;-80
2023/09/08 06:04:35;;;;;;;40.30;28.60;;;;;;;14.74;100.00;101786.75;5036420;28;20033;-78
2023/09/08 06:07:00;;;;;;;40.15;26.65;;;;;;;14.79;100.00;101788.00;5034868;28;20136;-77
2023/09/08 06:09:26;;;;;;;38.70;26.23;;;;;;;14.84;100.00;101792.94;5036121;28;20490;-77
2023/09/08 06:11:51;;;;;;;41.65;27.88;;;;;;;14.89;100.00;101790.66;5036254;28;20099;-78
2023/09/08 06:14:16;;;;;;;38.78;26.77;;;;;;;14.96;100.00;101798.97;5036215;28;20080;-79
2023/09/08 06:16:42;;;;;;;39.78;25.50;;;;;;;15.02;100.00;101801.06;5035691;28;20124;-77
2023/09/08 06:19:07;;;;;;;36.67;25.00;;;;;;;15.09;100.00;101802.19;5035915;28;20029;-78
2023/09/08 06:21:32;;;;;;;35.33;24.63;;;;;;;15.19;100.00;101795.94;5035792;28;20037;-77
2023/09/08 06:23:58;;;;;;;35.85;25.70;;;;;;;15.27;100.00;101793.34;5035743;28;20086;-77
2023/09/08 06:26:23;;;;;;;38.83;25.70;;;;;;;15.34;100.00;101787.25;5035804;28;20041;-77
2023/09/08 06:28:48;;;;;;;41.70;27.50;;;;;;;15.44;100.00;101795.28;5036249;28;20040;-77
2023/09/08 06:31:14;;;;;;;37.17;25.05;;;;;;;15.53;100.00;101801.59;5035679;28;20362;-77
2023/09/08 06:33:40;;;;;;;40.25;26.20;;;;;;;15.59;100.00;101789.44;5035743;28;20045;-77
2023/09/08 06:36:06;;;;;;;39.38;25.83;;;;;;;15.66;100.00;101790.53;5035652;28;20037;-78
2023/09/08 06:38:32;;;;;;;35.65;26.92;;;;;;;15.75;100.00;101795.00;5034713;28;20386;-78
2023/09/08 06:40:58;;;;;;;43.90;27.50;;;;;;;15.82;100.00;101790.75;5035910;28;20033;-78
2023/09/08 06:43:24;;;;;;;38.50;26.52;;;;;;;15.91;100.00;101798.88;5035583;28;20021;-78
2023/09/08 06:45:49;;;;;;;42.55;26.95;;;;;;;15.99;100.00;101801.66;5034055;28;20044;-78
2023/09/08 06:48:16;;;;;;;34.75;25.40;;;;;;;16.09;100.00;101802.41;5035985;28;20524;-79
2023/09/08 06:50:41;;;;;;;36.00;25.00;;;;;;;16.20;100.00;101806.75;5036163;28;20048;-78
2023/09/08 06:53:06;;;;;;;34.15;24.08;;;;;;;16.28;100.00;101801.44;5035426;28;20037;-78
2023/09/08 06:55:32;;;;;;;32.83;24.42;;;;;;;16.38;100.00;101794.16;5035329;28;20029;-79
2023/09/08 06:57:58;;;;;;;41.53;26.33;;;;;;;16.49;100.00;101801.13;5035275;28;20030;-77
2023/09/08 07:00:23;;;;;;;39.40;28.10;;;;;;;16.60;100.00;101800.06;5035559;28;20040;-77
2023/09/08 07:02:49;;;;;;;34.95;24.67;;;;;;;16.72;100.00;101803.34;5034802;28;20053;-77
2023/09/08 07:05:15;;;;;;;33.70;22.85;;;;;;;16.85;100.00;101794.84;5035657;28;20044;-77
2023/09/08 07:07:41;;;;;;;34.67;25.35;;;;;;;16.97;100.00;101798.16;5034963;28;20108;-77
2023/09/08 07:10:07;;;;;;;36.00;25.58;;;;;;;17.09;100.00;101805.81;5035117;28;20046;-77
2023/09/08 07:12:32;;;;;;;33.63;24.05;;;;;;;17.22;100.00;101807.22;5035301;28;20034;-78
2023/09/08 07:14:59;;;;;;;35.55;25.73;;;;;;;17.33;100.00;101808.78;5034860;28;20029;-78
2023/09/08 07:17:25;;;;;;;32.65;23.98;;;;;;;17.43;100.00;101813.03;5035031;28;20041;-78
2023/09/08 07:19:50;;;;;;;31.98;24.65;;;;;;;17.54;100.00;101816.44;5034706;28;20038;-78
2023/09/08 07:22:16;;;;;;;34.78;23.55;;;;;;;17.62;100.00;101811.97;5033587;28;20029;-78
2023/09/08 07:24:41;;;;;;;33.20;23.55;;;;;;;17.73;100.00;101809.97;5034938;28;20029;-78
2023/09/08 07:27:07;;;;;;;33.20;22.80;;;;;;;17.85;100.00;101808.66;5035363;28;20052;-78
2023/09/08 07:29:32;;;;;;;30.80;23.45;;;;;;;17.95;100.00;101814.78;5033901;28;20077;-78
2023/09/08 07:31:58;;;;;;;30.02;22.95;;;;;;;18.07;100.00;101812.63;5034939;28;20044;-78
2023/09/08 07:34:23;;;;;;;31.85;23.25;;;;;;;18.19;100.00;101815.03;5034514;28;20432;-78
2023/09/08 07:36:48;;;;;;;32.83;21.58;;;;;;;18.29;100.00;101816.53;5033512;28;20041;-77
2023/09/08 07:39:14;;;;;;;34.65;22.08;;;;;;;18.41;100.00;101818.94;5034517;28;20045;-78
2023/09/08 07:41:40;;;;;;;29.13;21.65;;;;;;;18.54;100.00;101811.19;5033959;28;20083;-78
2023/09/08 07:44:09;;;;;;;29.45;22.40;;;;;;;18.67;100.00;101807.97;5034332;28;20045;-78
2023/09/08 07:46:34;;;;;;;26.55;21.40;;;;;;;18.81;100.00;101810.00;5033051;28;20026;-78
2023/09/08 07:49:00;;;;;;;27.23;21.60;;;;;;;18.96;100.00;101806.63;5034629;28;20092;-78
2023/09/08 07:51:26;;;;;;;24.35;18.80;;;;;;;19.12;100.00;101803.06;5034389;28;20442;-78
2023/09/08 07:53:53;;;;;;;28.58;20.73;;;;;;;19.28;100.00;101804.88;5034001;28;20473;-78
2023/09/08 07:56:19;;;;;;;30.35;18.65;;;;;;;19.44;100.00;101801.28;5032915;28;20334;-79
2023/09/08 07:58:44;;;;;;;27.48;19.77;;;;;;;19.63;100.00;101795.47;5033865;28;20033;-78
2023/09/08 08:01:10;;;;;;;36.67;21.42;;;;;;;19.82;100.00;101796.91;5033758;28;20469;-78
2023/09/08 08:03:35;;;;;;;27.80;21.55;;;;;;;19.95;100.00;101796.34;5032957;28;20504;-77
2023/09/08 08:06:01;;;;;;;31.85;20.77;;;;;;;20.10;100.00;101796.41;5034050;28;20045;-76
2023/09/08 08:08:27;;;;;;;25.67;19.70;;;;;;;20.24;100.00;101801.06;5034677;28;20053;-79
2023/09/08 08:10:52;;;;;;;24.80;17.90;;;;;;;20.63;100.00;101804.66;5033815;28;20454;-76
2023/09/08 08:13:17;;;;;;;24.17;18.20;;;;;;;21.20;100.00;101813.22;5033242;28;20080;-76
2023/09/08 08:15:45;;;;;;;24.15;19.48;;;;;;;21.67;100.00;101799.31;5034330;28;20033;-76
2023/09/08 08:18:10;;;;;;;24.42;19.67;;;;;;;22.07;100.00;101796.22;5034133;28;20056;-76
2023/09/08 08:20:36;;;;;;;28.40;19.70;;;;;;;22.39;100.00;101807.63;5033781;28;20434;-76
2023/09/08 08:23:02;;;;;;;28.38;18.80;;;;;;;22.65;100.00;101792.63;5033017;28;20060;-76
2023/09/08 08:25:28;;;;;;;23.00;17.88;;;;;;;22.93;100.00;101794.50;5033580;28;20029;-77
2023/09/08 08:27:53;;;;;;;22.92;19.00;;;;;;;23.18;100.00;101794.91;5033551;28;20470;-77
2023/09/08 08:30:19;;;;;;;22.95;17.52;;;;;;;23.42;100.00;101794.41;5033482;28;20466;-77
2023/09/08 08:32:45;;;;;;;26.13;16.55;;;;;;;23.70;100.00;101798.06;5033811;28;20083;-77
2023/09/08 08:35:11;;;;;;;19.58;16.58;;;;;;;23.94;100.00;101794.00;5033853;28;20041;-76
2023/09/08 08:37:36;;;;;;;23.55;16.80;;;;;;;24.22;100.00;101796.56;5032682;28;20037;-77
2023/09/08 08:40:03;;;;;;;24.88;16.50;;;;;;;24.55;100.00;101793.03;5033347;28;20116;-77
2023/09/08 08:42:33;;;;;;;26.98;16.17;;;;;;;24.94;100.00;101791.34;5032771;28;20038;-77
2023/09/08 08:44:59;;;;;;;25.08;15.68;;;;;;;25.42;100.00;101795.66;5033267;28;20037;-77
2023/09/08 08:47:27;;;;;;;26.33;15.88;;;;;;;26.05;100.00;101791.41;5033086;28;20389;-77
2023/09/08 08:49:55;;;;;;;22.83;16.40;;;;;;;26.63;100.00;101794.94;5033232;28;20125;-77
2023/09/08 08:52:20;;;;;;;24.67;14.65;;;;;;;27.43;100.00;101786.81;5032826;28;20034;-78
2023/09/08 08:54:46;;;;;;;25.67;14.52;;;;;;;28.11;100.00;101790.34;5032042;28;20116;-78
2023/09/08 08:57:13;;;;;;;19.35;14.90;;;;;;;28.67;100.00;101788.19;5033282;28;20112;-78
2023/09/08 08:59:38;;;;;;;22.80;13.45;;;;;;;29.32;100.00;101786.38;5033311;28;20036;-77
2023/09/08 09:02:05;;;;;;;21.65;12.95;;;;;;;29.99;100.00;101784.09;5032892;28;20033;-77
2023/09/08 09:04:31;;;;;;;22.50;14.48;;;;;;;30.38;100.00;101787.78;5033154;28;20466;-77
2023/09/08 09:06:57;;;;;;;22.70;13.23;;;;;;;30.71;94.48;101782.53;5032986;28;20068;-77
2023/09/08 09:09:23;;;;;;;20.30;13.35;;;;;;;30.93;97.95;101782.59;5032755;28;20029;-77
2023/09/08 09:11:49;;;;;;;21.63;13.05;;;;;;;31.14;95.18;101791.16;5032822;28;20105;-77
2023/09/08 09:14:16;;;;;;;20.60;11.90;;;;;;;31.51;91.86;101790.50;5032557;28;20388;-77
2023/09/08 09:16:43;;;;;;;17.52;12.13;;;;;;;31.94;73.51;101786.84;5032951;28;20140;-77
2023/09/08 09:19:09;;;;;;;16.98;11.48;;;;;;;31.93;87.00;101790.72;5033259;28;20029;-77
2023/09/08 09:21:48;;;;;;;17.35;12.27;;;;;;;31.98;90.07;101793.50;5032919;28;20518;-77
2023/09/08 09:24:15;;;;;;;16.00;12.88;;;;;;;32.00;85.58;101790.50;5033235;28;20029;-77
2023/09/08 09:26:40;;;;;;;23.23;12.00;;;;;;;32.13;93.55;101783.78;5036760;28;20072;-77
2023/09/08 09:29:13;;;;;;;21.35;12.43;;;;;;;32.22;95.87;101790.44;5036953;28;20068;-77
2023/09/08 09:31:53;;;;;;;19.75;13.57;;;;;;;31.87;92.24;101788.16;5036807;28;20493;-77
2023/09/08 09:34:20;;;;;;;21.75;13.95;;;;;;;31.94;79.50;101781.34;5036789;28;20030;-77
2023/09/08 09:36:48;;;;;;;17.85;12.65;;;;;;;32.13;90.28;101786.53;5037572;28;20026;-77
2023/09/08 09:39:16;;;;;;;25.38;13.25;;;;;;;32.16;90.15;101786.00;5036765;28;20500;-78
2023/09/08 09:41:41;;;;;;;19.00;12.30;;;;;;;32.33;89.80;101783.09;5036864;28;20121;-78
2023/09/08 09:44:08;;;;;;;19.05;13.07;;;;;;;32.44;80.31;101784.84;5036726;28;20537;-77
2023/09/08 09:46:33;;;;;;;25.27;11.38;;;;;;;32.64;88.83;101777.81;5036580;28;20121;-78
2023/09/08 09:48:59;;;;;;;14.45;10.90;;;;;;;32.79;84.64;101785.38;5036783;28;20116;-78
2023/09/08 09:51:24;;;;;;;17.70;11.07;;;;;;;32.64;80.40;101780.56;5036447;28;20107;-78
2023/09/08 09:53:50;;;;;;;18.75;11.60;;;;;;;32.77;79.80;101776.53;5036444;28;20398;-77
2023/09/08 09:56:17;;;;;;;20.27;11.30;;;;;;;32.99;77.51;101771.72;5036558;28;20030;-78
2023/09/08 09:58:43;;;;;;;17.25;10.40;;;;;;;33.13;78.84;101768.47;5037269;28;20034;-78
2023/09/08 10:01:11;;;;;;;21.65;10.98;;;;;;;33.33;76.53;101776.84;5036478;28;20043;-78
2023/09/08 10:03:38;;;;;;;20.15;10.38;;;;;;;33.52;78.34;101773.59;5036377;28;20029;-79
2023/09/08 10:06:05;;;;;;;21.02;10.30;;;;;;;33.66;73.67;101765.63;5036341;28;20030;-78
2023/09/08 10:08:34;;;;;;;12.70;9.70;;;;;;;33.73;69.79;101772.56;5034686;28;20555;-78
2023/09/08 10:11:04;;;;;;;21.77;10.43;;;;;;;33.73;70.82;101778.06;5036224;28;20115;-78
2023/09/08 10:13:31;;;;;;;;;;;;;;;33.67;69.16;101770.03;5036950;28;20461;-78
2023/09/08 10:15:58;;;;;;;15.80;9.07;;;;;;;33.96;71.76;101781.41;5036544;28;20372;-78
2023/09/08 10:18:24;;;;;;;14.80;10.02;;;;;;;34.21;65.23;101777.84;5035727;28;20116;-78
2023/09/08 10:20:53;;;;;;;21.67;10.00;;;;;;;33.86;66.95;101775.88;5036103;28;20115;-78
2023/09/08 10:23:42;;;;;;;15.05;9.20;;;;;;;34.10;72.76;101778.97;5035577;28;20371;-78
2023/09/08 10:26:10;;;;;;;12.32;7.35;;;;;;;34.11;72.40;101769.56;5036321;28;20048;-78
2023/09/08 10:28:37;;;;;;;19.20;7.78;;;;;;;34.23;67.27;101772.88;5036436;28;20029;-78
2023/09/08 10:31:03;;;;;;;15.68;7.53;;;;;;;34.22;62.99;101779.50;5036237;28;20397;-78
2023/09/08 10:33:30;;;;;;;16.95;8.30;;;;;;;34.42;63.27;101777.84;5036142;28;20136;-78
2023/09/08 10:35:56;;;;;;;17.30;7.75;;;;;;;34.13;62.17;101781.16;5035985;28;20481;-78
2023/09/08 10:38:26;;;;;;;11.18;6.00;;;;;;;34.31;62.56;101777.03;5034876;28;20053;-78
2023/09/08 10:40:52;;;;;;;;;;;;;;;34.06;60.00;101770.38;5034865;28;20056;-78
2023/09/08 10:43:18;;;;;;;12.75;8.10;;;;;;;34.04;65.33;101778.13;5034140;28;19909;-78
2023/09/08 10:45:45;;;;;;;12.63;8.73;;;;;;;33.93;63.61;101776.44;5035345;28;20112;-78
2023/09/08 10:48:11;;;;;;;14.10;8.57;;;;;;;34.12;65.35;101773.16;5035480;28;20034;-78
2023/09/08 10:50:41;;;;;;;14.30;7.90;;;;;;;34.11;64.38;101775.06;5035418;28;20087;-78
2023/09/08 10:53:19;;;;;;;10.65;7.93;;;;;;;33.83;64.34;101768.16;5035612;28;20478;-78
2023/09/08 10:55:52;;;;;;;15.27;7.93;;;;;;;33.86;63.77;101771.22;5035646;28;20029;-78
2023/09/08 10:58:31;;;;;;;17.02;8.25;;;;;;;33.59;67.47;101771.41;5035186;28;20033;-78
2023/09/08 11:01:01;;;;;;;11.85;7.38;;;;;;;33.29;69.75;101772.13;5035547;28;20079;-78